createdAt,value
2019-06-20T00:00:08.903Z,22.00
2019-06-20T00:02:39.351Z,22.00
2019-06-20T00:05:10.156Z,22.00
2019-06-20T00:07:40.619Z,22.00
2019-06-20T00:10:11.158Z,22.00
2019-06-20T00:12:41.862Z,21.90
2019-06-20T00:30:48.822Z,21.80
2019-06-20T00:33:19.270Z,21.70
2019-06-20T00:35:49.786Z,21.70
2019-06-20T00:38:20.501Z,21.70
2019-06-20T00:40:51.285Z,21.60
2019-06-20T00:43:21.915Z,21.60
2019-06-20T00:45:52.394Z,21.50
2019-06-20T00:48:22.789Z,21.50
2019-06-20T00:50:53.240Z,21.50
2019-06-20T00:53:23.682Z,21.50
2019-06-20T00:55:54.121Z,21.50
2019-06-20T00:58:24.595Z,21.40
2019-06-20T01:00:55.112Z,21.40
2019-06-20T01:03:25.627Z,21.40
2019-06-20T01:05:56.271Z,21.30
2019-06-20T01:08:26.810Z,21.40
2019-06-20T01:10:57.247Z,21.30
2019-06-20T01:13:33.485Z,21.30
2019-06-20T01:15:59.920Z,21.20
2019-06-20T01:18:30.332Z,21.20
2019-06-20T01:21:01.041Z,21.20
2019-06-20T01:23:31.486Z,21.20
2019-06-20T01:26:01.915Z,21.20
2019-06-20T01:28:32.353Z,21.10
2019-06-20T01:31:02.872Z,21.10
2019-06-20T01:33:33.463Z,21.10
2019-06-20T01:36:04.006Z,21.10
2019-06-20T01:38:34.441Z,21.00
2019-06-20T01:41:06.256Z,21.00
2019-06-20T01:43:49.413Z,21.00
2019-06-20T01:46:09.043Z,21.00
2019-06-20T01:48:39.450Z,20.90
2019-06-20T01:51:09.891Z,20.90
2019-06-20T01:53:40.302Z,20.90
2019-06-20T01:56:10.740Z,20.80
2019-06-20T01:58:41.175Z,20.80
2019-06-20T02:01:14.024Z,20.80
2019-06-20T02:03:45.115Z,20.80
2019-06-20T02:06:15.800Z,20.70
2019-06-20T02:08:46.295Z,20.70
2019-06-20T02:11:16.773Z,20.70
2019-06-20T02:14:29.602Z,20.70
2019-06-20T02:17:05.635Z,20.70
2019-06-20T02:19:36.060Z,20.60
2019-06-20T02:22:06.538Z,20.60
2019-06-20T02:24:37.329Z,20.60
2019-06-20T02:27:07.888Z,20.60
2019-06-20T02:29:38.657Z,20.60
2019-06-20T02:32:09.110Z,20.60
2019-06-20T02:34:39.827Z,20.60
2019-06-20T02:37:12.457Z,20.60
2019-06-20T02:39:42.949Z,20.60
2019-06-20T02:42:13.851Z,20.60
2019-06-20T02:44:44.371Z,20.60
2019-06-20T02:47:14.802Z,20.70
2019-06-20T02:49:45.325Z,20.70
2019-06-20T02:52:15.754Z,20.70
2019-06-20T02:54:46.165Z,20.70
2019-06-20T02:57:16.765Z,20.80
2019-06-20T02:59:47.266Z,20.80
2019-06-20T03:02:17.619Z,20.90
2019-06-20T03:04:48.108Z,20.90
2019-06-20T03:07:18.521Z,21.00
2019-06-20T03:09:48.926Z,21.00
2019-06-20T03:12:19.516Z,21.10
2019-06-20T03:14:50.961Z,21.20
2019-06-20T03:17:21.461Z,21.30
2019-06-20T03:19:51.898Z,21.40
2019-06-20T03:22:25.377Z,21.60
2019-06-20T03:24:57.588Z,21.70
2019-06-20T03:27:28.191Z,21.80
2019-06-20T03:29:59.409Z,22.00
2019-06-20T03:32:29.831Z,22.10
2019-06-20T03:35:00.305Z,22.20
2019-06-20T03:37:30.899Z,22.20
2019-06-20T03:40:01.365Z,22.40
2019-06-20T03:42:32.260Z,22.50
2019-06-20T03:45:02.824Z,22.50
2019-06-20T03:47:33.406Z,22.60
2019-06-20T03:50:04.158Z,22.70
2019-06-20T03:52:34.615Z,22.80
2019-06-20T03:55:05.875Z,22.90
2019-06-20T03:57:36.323Z,23.00
2019-06-20T04:00:07.407Z,23.10
2019-06-20T04:02:38.238Z,23.10
2019-06-20T04:05:09.947Z,23.30
2019-06-20T04:07:40.593Z,23.40
2019-06-20T04:10:11.097Z,23.40
2019-06-20T04:12:41.535Z,23.50
2019-06-20T04:15:18.867Z,23.60
2019-06-20T04:17:44.722Z,23.80
2019-06-20T04:20:15.172Z,23.90
2019-06-20T04:22:45.597Z,23.90
2019-06-20T04:25:16.066Z,24.00
2019-06-20T04:27:46.545Z,24.00
2019-06-20T04:30:17.508Z,24.00
2019-06-20T04:32:47.979Z,24.10
2019-06-20T04:35:18.455Z,24.30
2019-06-20T04:37:48.904Z,24.30
2019-06-20T04:40:19.659Z,24.40
2019-06-20T04:42:50.562Z,24.40
2019-06-20T04:45:45.818Z,24.40
2019-06-20T04:48:16.475Z,24.30
2019-06-20T04:50:47.062Z,24.30
2019-06-20T04:53:17.855Z,24.30
2019-06-20T04:55:48.379Z,24.30
2019-06-20T04:58:18.930Z,24.30
2019-06-20T05:00:49.730Z,24.30
2019-06-20T05:03:20.183Z,24.30
2019-06-20T05:05:50.709Z,24.40
2019-06-20T05:08:21.233Z,24.50
2019-06-20T05:10:51.863Z,24.50
2019-06-20T05:13:22.420Z,24.40
2019-06-20T05:15:53.507Z,24.20
2019-06-20T05:18:24.092Z,24.10
2019-06-20T05:20:54.788Z,24.00
2019-06-20T05:23:25.361Z,24.00
2019-06-20T05:25:56.343Z,24.10
2019-06-20T05:28:26.807Z,24.20
2019-06-20T05:30:57.664Z,24.50
2019-06-20T05:33:29.196Z,24.90
2019-06-20T05:35:59.648Z,25.30
2019-06-20T05:38:30.245Z,25.70
2019-06-20T05:41:01.027Z,26.00
2019-06-20T05:43:32.276Z,26.30
2019-06-20T05:46:09.532Z,26.60
2019-06-20T05:48:34.882Z,27.10
2019-06-20T05:51:06.292Z,27.60
2019-06-20T05:53:36.905Z,28.00
2019-06-20T05:56:08.709Z,28.40
2019-06-20T05:58:39.320Z,28.90
2019-06-20T06:01:12.639Z,29.40
2019-06-20T06:03:43.155Z,29.90
2019-06-20T06:06:13.618Z,30.50
2019-06-20T06:08:44.144Z,30.90
2019-06-20T06:11:14.562Z,31.40
2019-06-20T06:13:45.206Z,31.80
2019-06-20T06:16:27.001Z,32.20
2019-06-20T06:18:50.010Z,32.50
2019-06-20T06:21:20.571Z,32.90
2019-06-20T06:23:51.017Z,33.30
2019-06-20T06:26:21.580Z,33.60
2019-06-20T06:28:52.383Z,33.80
2019-06-20T06:31:23.123Z,34.00
2019-06-20T06:33:53.793Z,34.20
2019-06-20T06:36:24.193Z,34.20
2019-06-20T06:38:54.673Z,34.00
2019-06-20T06:41:25.203Z,33.80
2019-06-20T06:43:56.455Z,33.60
2019-06-20T06:46:42.520Z,33.50
2019-06-20T06:48:59.411Z,33.50
2019-06-20T06:51:30.064Z,33.60
2019-06-20T06:54:01.955Z,33.80
2019-06-20T06:56:32.519Z,34.00
2019-06-20T06:59:02.962Z,34.20
2019-06-20T07:01:33.494Z,34.50
2019-06-20T07:04:04.223Z,34.80
2019-06-20T07:06:34.654Z,35.20
2019-06-20T07:09:08.721Z,35.40
2019-06-20T07:11:39.442Z,35.60
2019-06-20T07:14:10.001Z,35.80
2019-06-20T07:16:40.462Z,36.10
2019-06-20T07:19:11.136Z,36.30
2019-06-20T07:21:41.684Z,36.20
2019-06-20T07:24:13.038Z,35.80
2019-06-20T07:26:43.526Z,35.30
2019-06-20T07:29:14.059Z,34.90
2019-06-20T07:31:44.868Z,34.50
2019-06-20T07:34:15.671Z,34.10
2019-06-20T07:36:46.889Z,33.90
2019-06-20T07:39:17.467Z,34.10
2019-06-20T07:41:48.000Z,34.50
2019-06-20T07:44:18.884Z,35.00
2019-06-20T07:46:49.245Z,35.50
2019-06-20T07:49:19.774Z,36.20
2019-06-20T07:51:50.392Z,36.70
2019-06-20T07:54:20.923Z,37.30
2019-06-20T07:56:51.373Z,37.70
2019-06-20T07:59:21.839Z,38.20
2019-06-20T08:01:52.338Z,38.50
2019-06-20T08:04:22.844Z,38.80
2019-06-20T08:06:53.379Z,39.10
2019-06-20T08:09:23.861Z,39.20
2019-06-20T08:11:54.386Z,39.40
2019-06-20T08:14:24.898Z,39.40
2019-06-20T08:16:55.662Z,39.50
2019-06-20T08:19:26.262Z,39.60
2019-06-20T08:21:56.802Z,39.70
2019-06-20T08:24:27.292Z,40.00
2019-06-20T08:26:58.702Z,40.30
2019-06-20T08:29:29.973Z,40.40
2019-06-20T08:32:01.046Z,40.60
2019-06-20T08:34:32.840Z,40.30
2019-06-20T08:37:04.368Z,39.90
2019-06-20T08:39:35.152Z,39.40
2019-06-20T08:42:06.394Z,38.90
2019-06-20T08:44:37.403Z,38.70
2019-06-20T08:47:09.096Z,38.80
2019-06-20T08:49:39.566Z,38.90
2019-06-20T09:01:10.701Z,39.70
2019-06-20T09:11:47.319Z,40.50
2019-06-20T09:14:17.732Z,40.60
2019-06-20T09:16:48.211Z,40.50
2019-06-20T09:19:18.759Z,40.50
2019-06-20T09:21:49.213Z,40.50
2019-06-20T09:24:19.872Z,40.40
2019-06-20T09:26:51.356Z,40.20
2019-06-20T09:29:22.777Z,40.00
2019-06-20T09:31:54.012Z,39.80
2019-06-20T09:34:24.600Z,39.70
2019-06-20T09:36:55.255Z,39.50
2019-06-20T09:39:25.636Z,39.30
2019-06-20T09:41:56.570Z,39.20
2019-06-20T09:44:27.297Z,39.10
2019-06-20T09:46:58.206Z,39.00
2019-06-20T09:49:28.980Z,39.00
2019-06-20T09:51:59.432Z,38.90
2019-06-20T09:54:30.029Z,38.90
2019-06-20T09:57:00.719Z,38.90
2019-06-20T09:59:31.378Z,38.80
2019-06-20T10:02:02.255Z,38.80
2019-06-20T10:04:33.644Z,38.90
2019-06-20T10:07:04.014Z,38.80
2019-06-20T10:09:34.496Z,38.60
2019-06-20T10:17:55.633Z,38.30
2019-06-20T10:21:31.924Z,38.30
2019-06-20T11:28:13.892Z,37.20
2019-06-20T11:30:55.999Z,37.10
2019-06-20T11:33:17.580Z,36.80
2019-06-20T11:35:48.291Z,36.50
2019-06-20T11:38:18.768Z,36.20
2019-06-20T11:40:51.409Z,35.80
2019-06-20T11:43:21.947Z,35.60
2019-06-20T12:24:40.016Z,32.30
2019-06-20T12:27:10.835Z,32.20
2019-06-20T12:29:42.140Z,32.10
2019-06-20T12:32:12.962Z,32.10
2019-06-20T12:34:44.539Z,31.90
2019-06-20T12:37:15.154Z,31.70
2019-06-20T12:39:46.417Z,31.30
2019-06-20T12:42:17.114Z,30.90
2019-06-20T12:44:47.776Z,30.40
2019-06-20T12:47:19.687Z,30.00
2019-06-20T12:49:50.722Z,29.60
2019-06-20T12:52:23.420Z,29.30
2019-06-20T12:54:53.858Z,29.10
2019-06-20T12:57:24.359Z,28.90
2019-06-20T12:59:54.779Z,28.90
2019-06-20T13:49:22.349Z,30.10
2019-06-20T13:51:53.821Z,29.90
2019-06-20T13:54:24.244Z,29.80
2019-06-20T13:56:56.209Z,29.70
2019-06-20T13:59:26.815Z,29.60
2019-06-20T14:02:06.261Z,29.60
2019-06-20T14:04:29.437Z,29.40
2019-06-20T14:06:59.945Z,29.30
2019-06-20T14:09:30.351Z,29.30
2019-06-20T14:12:00.841Z,29.20
2019-06-20T14:14:32.759Z,29.20
2019-06-20T14:17:03.231Z,29.10
2019-06-20T14:19:33.658Z,29.10
2019-06-20T14:22:04.146Z,29.00
2019-06-20T14:24:34.603Z,29.00
2019-06-20T14:27:05.599Z,29.00
2019-06-20T14:29:36.286Z,28.90
2019-06-20T14:32:18.797Z,28.80
2019-06-20T14:34:39.096Z,28.80
2019-06-20T14:37:09.606Z,28.80
2019-06-20T14:39:40.093Z,28.70
2019-06-20T14:42:10.521Z,28.60
2019-06-20T14:44:41.045Z,28.50
2019-06-20T14:47:11.472Z,28.40
2019-06-20T14:49:41.972Z,28.40
2019-06-20T14:52:12.787Z,28.30
2019-06-20T14:54:44.520Z,28.30
2019-06-20T14:57:16.951Z,28.30
2019-06-20T14:59:48.334Z,28.40
2019-06-20T15:02:19.561Z,28.50
2019-06-20T15:04:50.085Z,28.50
2019-06-20T15:07:20.549Z,28.60
2019-06-20T15:09:51.433Z,28.60
2019-06-20T15:12:22.093Z,28.70
2019-06-20T15:14:53.423Z,28.60
2019-06-20T15:17:24.111Z,28.60
2019-06-20T15:19:56.054Z,28.50
2019-06-20T15:22:26.842Z,28.40
2019-06-20T15:24:57.291Z,28.30
2019-06-20T15:27:27.810Z,28.30
2019-06-20T15:29:58.230Z,28.20
2019-06-20T15:32:28.861Z,28.10
2019-06-20T15:35:01.840Z,27.90
2019-06-20T15:37:32.647Z,27.70
2019-06-20T15:40:03.159Z,27.60
2019-06-20T15:42:33.808Z,27.50
2019-06-20T15:45:04.770Z,27.40
2019-06-20T15:47:35.327Z,27.40
2019-06-20T15:50:06.288Z,27.40
2019-06-20T15:52:36.958Z,27.40
2019-06-20T15:55:07.857Z,27.50
2019-06-20T15:57:38.215Z,27.60
2019-06-20T16:00:09.943Z,27.70
2019-06-20T16:02:40.416Z,27.70
2019-06-20T16:05:12.185Z,27.70
2019-06-20T16:07:42.780Z,27.70
2019-06-20T16:10:13.942Z,27.60
2019-06-20T16:12:44.305Z,27.60
2019-06-20T16:15:21.176Z,27.50
2019-06-20T16:17:52.132Z,27.50
2019-06-20T16:20:23.691Z,27.50
2019-06-20T16:22:54.607Z,27.40
2019-06-20T16:25:24.977Z,27.40
2019-06-20T16:27:55.449Z,27.40
2019-06-20T16:30:26.099Z,27.50
2019-06-20T16:32:56.710Z,27.50
2019-06-20T16:35:27.134Z,27.50
2019-06-20T16:37:57.619Z,27.50
2019-06-20T16:40:47.665Z,27.50
2019-06-20T16:43:18.639Z,27.40
2019-06-20T16:45:49.149Z,27.30
2019-06-20T16:48:19.648Z,27.20
2019-06-20T16:50:50.230Z,27.10
2019-06-20T16:53:21.090Z,27.00
2019-06-20T16:55:52.008Z,26.90
2019-06-20T16:58:22.515Z,26.80
2019-06-20T17:00:53.165Z,26.70
2019-06-20T17:03:23.595Z,26.60
2019-06-20T17:05:54.224Z,26.60
2019-06-20T17:08:24.727Z,26.40
2019-06-20T17:10:55.169Z,26.40
2019-06-20T17:13:25.640Z,26.30
2019-06-20T17:15:56.102Z,26.20
2019-06-20T17:18:26.638Z,26.00
2019-06-20T17:20:57.140Z,25.90
2019-06-20T17:23:29.999Z,25.80
2019-06-20T17:26:01.565Z,25.80
2019-06-20T17:28:32.479Z,25.70
2019-06-20T17:31:24.214Z,25.60
2019-06-20T17:34:05.607Z,25.50
2019-06-20T17:36:36.035Z,25.40
2019-06-20T17:39:08.302Z,25.20
2019-06-20T17:41:54.191Z,25.10
2019-06-20T17:44:11.451Z,25.00
2019-06-20T17:46:41.872Z,25.00
2019-06-20T17:49:12.714Z,24.90
2019-06-20T17:51:44.431Z,24.90
2019-06-20T17:54:15.216Z,24.80
2019-06-20T17:56:45.640Z,24.80
2019-06-20T17:59:16.391Z,24.70
2019-06-20T18:01:46.911Z,24.70
2019-06-20T18:04:17.391Z,24.60
2019-06-20T18:06:47.827Z,24.60
2019-06-20T18:09:18.231Z,24.50
2019-06-20T18:11:48.694Z,24.40
2019-06-20T18:14:19.160Z,24.40
2019-06-20T18:16:50.185Z,24.30
2019-06-20T18:19:20.695Z,24.40
2019-06-20T18:21:52.040Z,24.30
2019-06-20T18:24:22.511Z,24.30
2019-06-20T18:26:52.938Z,24.30
2019-06-20T18:29:23.438Z,24.30
2019-06-20T18:31:53.907Z,24.30
2019-06-20T18:34:29.848Z,24.30
2019-06-20T18:36:56.431Z,24.30
2019-06-20T18:39:26.927Z,24.20
2019-06-20T18:41:57.442Z,24.20
2019-06-20T18:44:27.949Z,24.20
2019-06-20T18:46:58.405Z,24.20
2019-06-20T18:49:28.896Z,24.20
2019-06-20T18:51:59.415Z,24.10
2019-06-20T18:54:30.202Z,24.00
2019-06-20T18:57:00.600Z,23.90
2019-06-20T18:59:32.776Z,23.90
2019-06-20T19:02:03.107Z,23.80
2019-06-20T19:04:46.229Z,23.70
2019-06-20T19:07:05.712Z,23.60
2019-06-20T19:09:36.426Z,23.50
2019-06-20T19:12:06.949Z,23.40
2019-06-20T19:14:37.408Z,23.30
2019-06-20T19:17:07.884Z,23.30
2019-06-20T19:19:38.922Z,23.30
2019-06-20T19:22:09.454Z,23.20
2019-06-20T19:24:39.924Z,23.10
2019-06-20T19:27:10.438Z,23.10
2019-06-20T19:29:51.307Z,23.10
2019-06-20T19:32:30.035Z,23.00
2019-06-20T19:35:40.498Z,23.00
2019-06-20T19:38:10.903Z,22.90
2019-06-20T19:40:45.355Z,22.80
2019-06-20T19:43:15.840Z,22.80
2019-06-20T19:45:46.464Z,22.70
2019-06-20T19:48:17.138Z,22.70
2019-06-20T19:50:47.608Z,22.60
2019-06-20T19:53:19.541Z,22.60
2019-06-20T19:55:49.912Z,22.60
2019-06-20T19:58:20.329Z,22.50
2019-06-20T20:00:50.887Z,22.50
2019-06-20T20:03:21.351Z,22.50
2019-06-20T20:05:51.686Z,22.50
2019-06-20T20:08:25.656Z,22.50
2019-06-20T20:10:56.263Z,22.50
2019-06-20T20:13:26.888Z,22.50
2019-06-20T20:15:57.898Z,22.40
2019-06-20T20:18:28.627Z,22.40
2019-06-20T20:20:59.127Z,22.40
2019-06-20T20:23:29.612Z,22.40
2019-06-20T20:26:00.264Z,22.30
2019-06-20T20:28:30.752Z,22.30
2019-06-20T20:31:01.799Z,22.30
2019-06-20T20:33:32.679Z,22.20
2019-06-20T20:36:03.207Z,22.20
2019-06-20T20:38:33.608Z,22.20
2019-06-20T20:41:04.092Z,22.10
2019-06-20T20:43:34.573Z,22.10
2019-06-20T20:46:05.498Z,22.10
2019-06-20T20:48:35.976Z,22.10
2019-06-20T20:51:06.739Z,22.10
2019-06-20T20:53:37.252Z,22.10
2019-06-20T20:56:07.753Z,22.10
2019-06-20T20:58:39.834Z,22.10
2019-06-20T21:01:35.332Z,22.10
2019-06-20T21:04:04.365Z,22.10
2019-06-20T21:06:34.845Z,22.10
2019-06-20T21:09:07.726Z,22.10
2019-06-20T21:11:38.383Z,22.00
2019-06-20T21:14:08.875Z,22.00
2019-06-20T21:16:39.359Z,22.00
2019-06-20T21:19:09.896Z,21.90
2019-06-20T21:21:40.430Z,21.90
2019-06-20T21:24:10.775Z,21.90
2019-06-20T21:26:49.476Z,21.90
2019-06-20T21:29:13.473Z,21.90
2019-06-20T21:31:43.919Z,21.80
2019-06-20T21:34:14.557Z,21.80
2019-06-20T21:36:45.182Z,21.70
2019-06-20T21:39:15.664Z,21.70
2019-06-20T21:41:47.021Z,21.70
2019-06-20T21:44:17.456Z,21.60
2019-06-20T21:46:48.016Z,21.60
2019-06-20T21:49:18.438Z,21.50
2019-06-20T21:51:49.482Z,21.60
2019-06-20T21:54:19.992Z,21.50
2019-06-20T21:56:50.639Z,21.50
2019-06-20T21:59:21.200Z,21.40
2019-06-20T22:01:52.083Z,21.40
2019-06-20T22:04:22.681Z,21.30
2019-06-20T22:06:54.558Z,21.30
2019-06-20T22:09:25.216Z,21.30
2019-06-20T22:11:55.626Z,21.20
2019-06-20T22:14:26.849Z,21.20
2019-06-20T22:16:57.400Z,21.20
2019-06-20T22:19:29.717Z,21.10
2019-06-20T22:22:00.693Z,21.10
2019-06-20T22:24:31.181Z,21.00
2019-06-20T22:27:01.647Z,21.00
2019-06-20T22:29:32.066Z,20.90
2019-06-20T22:32:02.498Z,20.90
2019-06-20T22:34:32.927Z,20.80
2019-06-20T22:37:03.547Z,20.80
2019-06-20T22:39:33.948Z,20.70
2019-06-20T22:42:04.647Z,20.70
2019-06-20T22:44:35.063Z,20.70
2019-06-20T22:47:11.211Z,20.60
2019-06-20T22:49:41.645Z,20.60
2019-06-20T22:52:12.240Z,20.60
2019-06-20T22:54:42.666Z,20.50
2019-06-20T22:57:13.091Z,20.50
2019-06-20T22:59:46.501Z,20.40
2019-06-20T23:02:15.736Z,20.50
2019-06-20T23:04:46.167Z,20.40
2019-06-20T23:07:16.644Z,20.40
2019-06-20T23:09:47.138Z,20.40
2019-06-20T23:12:17.715Z,20.40
2019-06-20T23:14:48.149Z,20.40
2019-06-20T23:17:18.680Z,20.30
2019-06-20T23:19:49.096Z,20.30
2019-06-20T23:22:19.573Z,20.30
2019-06-20T23:24:50.130Z,20.30
2019-06-20T23:27:20.532Z,20.30
2019-06-20T23:29:51.086Z,20.30
2019-06-20T23:32:21.918Z,20.30
2019-06-20T23:34:52.298Z,20.30
2019-06-20T23:37:23.159Z,20.10
2019-06-20T23:39:53.542Z,20.20
2019-06-20T23:42:24.109Z,20.20
2019-06-20T23:44:54.654Z,20.10
2019-06-20T23:47:26.032Z,20.10
2019-06-20T23:49:56.463Z,20.10
2019-06-20T23:52:29.166Z,20.10
2019-06-20T23:54:59.659Z,20.10
2019-06-20T23:57:30.072Z,20.10
